sensor_id;sensor_type;location;lat;lon;timestamp;pressure;altitude;pressure_sealevel;temperature;humidity
71621;BME280;59471;42.254;23.102;2023-03-17T00:01:50;95982.34;;;1.02;89.08
71621;BME280;59471;42.254;23.102;2023-03-17T00:04:18;95996.44;;;1.21;88.73
71621;BME280;59471;42.254;23.102;2023-03-17T00:06:46;95989.41;;;1.23;88.69
71621;BME280;59471;42.254;23.102;2023-03-17T00:09:16;95977.69;;;1.07;88.19
71621;BME280;59471;42.254;23.102;2023-03-17T00:11:44;95976.28;;;1.14;87.99
71621;BME280;59471;42.254;23.102;2023-03-17T00:14:10;95973.09;;;1.00;89.16
71621;BME280;59471;42.254;23.102;2023-03-17T00:16:44;95983.06;;;1.15;87.91
71621;BME280;59471;42.254;23.102;2023-03-17T00:19:15;95982.84;;;1.19;87.61
71621;BME280;59471;42.254;23.102;2023-03-17T00:21:42;95989.41;;;1.23;87.08
71621;BME280;59471;42.254;23.102;2023-03-17T00:24:09;95976.28;;;1.14;86.94
71621;BME280;59471;42.254;23.102;2023-03-17T00:26:36;95981.44;;;1.14;87.18
71621;BME280;59471;42.254;23.102;2023-03-17T00:29:02;95991.28;;;1.21;86.75
71621;BME280;59471;42.254;23.102;2023-03-17T00:31:29;95977.69;;;1.19;87.05
71621;BME280;59471;42.254;23.102;2023-03-17T00:33:55;95974.88;;;1.22;86.67
71621;BME280;59471;42.254;23.102;2023-03-17T00:36:32;95980.50;;;1.27;86.18
71621;BME280;59471;42.254;23.102;2023-03-17T00:38:58;95981.56;;;1.24;86.17
71621;BME280;59471;42.254;23.102;2023-03-17T00:41:25;95991.41;;;1.30;85.62
71621;BME280;59471;42.254;23.102;2023-03-17T00:43:51;95979.09;;;1.23;86.32
71621;BME280;59471;42.254;23.102;2023-03-17T00:46:30;95975.59;;;1.24;86.53
71621;BME280;59471;42.254;23.102;2023-03-17T00:49:14;95980.97;;;1.32;85.78
71621;BME280;59471;42.254;23.102;2023-03-17T00:51:42;95976.97;;;1.28;85.91
71621;BME280;59471;42.254;23.102;2023-03-17T00:54:10;95979.53;;;1.16;86.42
71621;BME280;59471;42.254;23.102;2023-03-17T00:56:37;95982.13;;;1.16;87.32
71621;BME280;59471;42.254;23.102;2023-03-17T00:59:03;95981.22;;;1.40;86.54
71621;BME280;59471;42.254;23.102;2023-03-17T01:01:30;95974.19;;;1.42;85.83
71621;BME280;59471;42.254;23.102;2023-03-17T01:03:56;95978.41;;;1.21;86.11
71621;BME280;59471;42.254;23.102;2023-03-17T01:06:22;95963.59;;;1.23;86.30
71621;BME280;59471;42.254;23.102;2023-03-17T01:08:47;95974.75;;;1.12;86.49
71621;BME280;59471;42.254;23.102;2023-03-17T01:11:16;95972.03;;;1.02;87.35
71621;BME280;59471;42.254;23.102;2023-03-17T01:13:45;95977.91;;;1.04;87.14
71621;BME280;59471;42.254;23.102;2023-03-17T01:16:11;95982.13;;;1.05;87.90
71621;BME280;59471;42.254;23.102;2023-03-17T01:18:36;95989.88;;;1.05;87.22
71621;BME280;59471;42.254;23.102;2023-03-17T01:21:02;95985.84;;;0.90;88.04
71621;BME280;59471;42.254;23.102;2023-03-17T01:23:29;95994.03;;;0.84;88.55
71621;BME280;59471;42.254;23.102;2023-03-17T01:25:55;95989.59;;;0.86;88.83
71621;BME280;59471;42.254;23.102;2023-03-17T01:28:21;95997.34;;;0.97;87.60
71621;BME280;59471;42.254;23.102;2023-03-17T01:30:47;95995.13;;;0.92;87.34
71621;BME280;59471;42.254;23.102;2023-03-17T01:33:14;96001.06;;;0.82;88.31
71621;BME280;59471;42.254;23.102;2023-03-17T01:35:40;95997.41;;;0.73;88.30
71621;BME280;59471;42.254;23.102;2023-03-17T01:38:08;95993.09;;;0.74;88.30
71621;BME280;59471;42.254;23.102;2023-03-17T01:40:42;95990.72;;;0.71;88.30
71621;BME280;59471;42.254;23.102;2023-03-17T01:46:18;95990.81;;;0.69;87.88
71621;BME280;59471;42.254;23.102;2023-03-17T01:51:29;95995.91;;;0.82;87.10
71621;BME280;59471;42.254;23.102;2023-03-17T01:57:03;96004.47;;;0.82;87.32
71621;BME280;59471;42.254;23.102;2023-03-17T01:59:39;96004.56;;;0.81;86.50
71621;BME280;59471;42.254;23.102;2023-03-17T02:02:10;95994.50;;;0.78;86.52
71621;BME280;59471;42.254;23.102;2023-03-17T02:04:37;96001.06;;;0.82;86.87
71621;BME280;59471;42.254;23.102;2023-03-17T02:07:04;96009.28;;;0.87;86.27
71621;BME280;59471;42.254;23.102;2023-03-17T02:09:31;96010.91;;;0.88;85.98
71621;BME280;59471;42.254;23.102;2023-03-17T02:11:59;96015.38;;;0.97;85.86
71621;BME280;59471;42.254;23.102;2023-03-17T02:14:26;96019.00;;;0.95;85.89
71621;BME280;59471;42.254;23.102;2023-03-17T02:16:52;96022.91;;;0.89;85.69
71621;BME280;59471;42.254;23.102;2023-03-17T02:19:18;96027.31;;;0.87;85.73
71621;BME280;59471;42.254;23.102;2023-03-17T02:21:53;96029.19;;;0.85;86.13
71621;BME280;59471;42.254;23.102;2023-03-17T02:26:54;96032.31;;;1.01;85.09
71621;BME280;59471;42.254;23.102;2023-03-17T02:29:22;96035.78;;;1.00;84.78
71621;BME280;59471;42.254;23.102;2023-03-17T02:31:48;96041.19;;;0.97;85.20
71621;BME280;59471;42.254;23.102;2023-03-17T02:34:14;96044.25;;;1.02;84.79
71621;BME280;59471;42.254;23.102;2023-03-17T02:36:40;96049.28;;;0.92;85.60
71621;BME280;59471;42.254;23.102;2023-03-17T02:39:05;96052.72;;;1.04;84.55
71621;BME280;59471;42.254;23.102;2023-03-17T02:41:32;96059.50;;;1.05;84.37
71621;BME280;59471;42.254;23.102;2023-03-17T02:43:59;96060.41;;;0.93;85.15
71621;BME280;59471;42.254;23.102;2023-03-17T02:46:25;96066.38;;;0.93;85.24
71621;BME280;59471;42.254;23.102;2023-03-17T02:48:51;96077.28;;;0.97;85.20
71621;BME280;59471;42.254;23.102;2023-03-17T02:51:17;96071.59;;;1.05;84.59
71621;BME280;59471;42.254;23.102;2023-03-17T02:53:43;96064.22;;;1.11;84.65
71621;BME280;59471;42.254;23.102;2023-03-17T02:56:08;96071.59;;;1.16;84.40
71621;BME280;59471;42.254;23.102;2023-03-17T02:58:34;96079.00;;;1.21;84.58
71621;BME280;59471;42.254;23.102;2023-03-17T03:01:00;96077.56;;;1.16;83.94
71621;BME280;59471;42.254;23.102;2023-03-17T03:03:26;96075.34;;;1.12;84.52
71621;BME280;59471;42.254;23.102;2023-03-17T03:05:52;96078.03;;;1.10;84.83
71621;BME280;59471;42.254;23.102;2023-03-17T03:08:18;96089.31;;;1.21;84.22
71621;BME280;59471;42.254;23.102;2023-03-17T03:10:43;96083.34;;;1.20;84.20
71621;BME280;59471;42.254;23.102;2023-03-17T03:13:10;96091.91;;;1.32;84.07
71621;BME280;59471;42.254;23.102;2023-03-17T03:15:36;96095.16;;;1.23;84.35
71621;BME280;59471;42.254;23.102;2023-03-17T03:18:01;96096.47;;;1.17;83.80
71621;BME280;59471;42.254;23.102;2023-03-17T03:20:27;96098.94;;;1.19;83.96
71621;BME280;59471;42.254;23.102;2023-03-17T03:22:53;96095.97;;;1.12;84.52
71621;BME280;59471;42.254;23.102;2023-03-17T03:25:18;96095.38;;;1.08;84.49
71621;BME280;59471;42.254;23.102;2023-03-17T03:27:44;96101.25;;;1.10;84.62
71621;BME280;59471;42.254;23.102;2023-03-17T03:30:10;96103.44;;;1.04;85.01
71621;BME280;59471;42.254;23.102;2023-03-17T03:32:36;96099.06;;;1.17;84.30
71621;BME280;59471;42.254;23.102;2023-03-17T03:35:01;96112.50;;;1.09;84.88
71621;BME280;59471;42.254;23.102;2023-03-17T03:37:28;96109.22;;;1.07;85.17
71621;BME280;59471;42.254;23.102;2023-03-17T03:39:54;96113.91;;;1.13;84.44
71621;BME280;59471;42.254;23.102;2023-03-17T03:42:20;96114.38;;;1.07;85.18
71621;BME280;59471;42.254;23.102;2023-03-17T03:44:45;96114.25;;;1.09;85.59
71621;BME280;59471;42.254;23.102;2023-03-17T03:47:11;96115.13;;;1.21;84.88
71621;BME280;59471;42.254;23.102;2023-03-17T03:49:36;96105.25;;;1.14;84.52
71621;BME280;59471;42.254;23.102;2023-03-17T03:52:02;96108.91;;;1.23;84.26
71621;BME280;59471;42.254;23.102;2023-03-17T03:54:28;96114.66;;;1.27;84.26
71621;BME280;59471;42.254;23.102;2023-03-17T03:56:53;96119.47;;;1.20;83.91
71621;BME280;59471;42.254;23.102;2023-03-17T03:59:19;96116.75;;;1.22;83.80
71621;BME280;59471;42.254;23.102;2023-03-17T04:01:45;96125.50;;;1.08;84.35
71621;BME280;59471;42.254;23.102;2023-03-17T04:04:10;96132.16;;;0.99;84.37
71621;BME280;59471;42.254;23.102;2023-03-17T04:06:36;96126.19;;;0.99;84.45
71621;BME280;59471;42.254;23.102;2023-03-17T04:09:01;96128.25;;;1.18;83.80
71621;BME280;59471;42.254;23.102;2023-03-17T04:11:27;96139.44;;;1.05;83.91
71621;BME280;59471;42.254;23.102;2023-03-17T04:13:53;96128.84;;;1.21;83.67
71621;BME280;59471;42.254;23.102;2023-03-17T04:16:18;96136.50;;;1.34;83.17
71621;BME280;59471;42.254;23.102;2023-03-17T04:18:44;96135.44;;;1.36;83.07
71621;BME280;59471;42.254;23.102;2023-03-17T04:21:10;96143.75;;;1.29;83.75
71621;BME280;59471;42.254;23.102;2023-03-17T04:23:36;96147.56;;;1.47;82.54
71621;BME280;59471;42.254;23.102;2023-03-17T04:26:02;96157.66;;;1.50;82.46
71621;BME280;59471;42.254;23.102;2023-03-17T04:28:28;96154.59;;;1.45;82.53
71621;BME280;59471;42.254;23.102;2023-03-17T04:30:54;96160.69;;;1.44;82.54
71621;BME280;59471;42.254;23.102;2023-03-17T04:33:20;96154.94;;;1.41;82.55
71621;BME280;59471;42.254;23.102;2023-03-17T04:35:46;96158.78;;;1.35;82.99
71621;BME280;59471;42.254;23.102;2023-03-17T04:38:12;96165.97;;;1.43;82.78
71621;BME280;59471;42.254;23.102;2023-03-17T04:40:37;96169.47;;;1.42;83.19
71621;BME280;59471;42.254;23.102;2023-03-17T04:43:03;96161.41;;;1.46;82.11
71621;BME280;59471;42.254;23.102;2023-03-17T04:45:29;96171.91;;;1.32;82.95
71621;BME280;59471;42.254;23.102;2023-03-17T04:47:54;96175.91;;;1.36;83.26
71621;BME280;59471;42.254;23.102;2023-03-17T04:50:20;96177.09;;;1.43;83.37
71621;BME280;59471;42.254;23.102;2023-03-17T04:52:45;96181.31;;;1.33;83.44
71621;BME280;59471;42.254;23.102;2023-03-17T04:55:11;96179.41;;;1.35;83.59
71621;BME280;59471;42.254;23.102;2023-03-17T04:57:37;96177.56;;;1.37;83.49
71621;BME280;59471;42.254;23.102;2023-03-17T05:00:04;96183.22;;;1.53;82.96
71621;BME280;59471;42.254;23.102;2023-03-17T05:02:31;96185.44;;;1.47;82.01
71621;BME280;59471;42.254;23.102;2023-03-17T05:04:56;96188.63;;;1.50;82.93
71621;BME280;59471;42.254;23.102;2023-03-17T05:07:22;96186.09;;;1.61;82.48
71621;BME280;59471;42.254;23.102;2023-03-17T05:09:48;96186.97;;;1.49;82.03
71621;BME280;59471;42.254;23.102;2023-03-17T05:12:13;96192.75;;;1.53;82.32
71621;BME280;59471;42.254;23.102;2023-03-17T05:14:40;96199.38;;;1.44;83.20
71621;BME280;59471;42.254;23.102;2023-03-17T05:17:05;96191.66;;;1.44;82.82
71621;BME280;59471;42.254;23.102;2023-03-17T05:19:31;96200.91;;;1.71;82.37
71621;BME280;59471;42.254;23.102;2023-03-17T05:21:57;96195.50;;;1.74;81.94
71621;BME280;59471;42.254;23.102;2023-03-17T05:24:23;96194.97;;;1.57;82.75
71621;BME280;59471;42.254;23.102;2023-03-17T05:26:48;96199.63;;;1.41;82.79
71621;BME280;59471;42.254;23.102;2023-03-17T05:29:14;96207.63;;;1.49;83.24
71621;BME280;59471;42.254;23.102;2023-03-17T05:31:40;96216.34;;;1.59;82.18
71621;BME280;59471;42.254;23.102;2023-03-17T05:34:06;96219.16;;;1.56;82.54
71621;BME280;59471;42.254;23.102;2023-03-17T05:36:32;96211.38;;;1.45;83.04
71621;BME280;59471;42.254;23.102;2023-03-17T05:38:57;96206.81;;;1.49;82.90
71621;BME280;59471;42.254;23.102;2023-03-17T05:41:23;96213.53;;;1.62;81.89
71621;BME280;59471;42.254;23.102;2023-03-17T05:43:49;96213.75;;;1.59;81.92
71621;BME280;59471;42.254;23.102;2023-03-17T05:46:15;96220.09;;;1.67;81.57
71621;BME280;59471;42.254;23.102;2023-03-17T05:48:40;96226.44;;;1.62;82.08
71621;BME280;59471;42.254;23.102;2023-03-17T05:51:06;96226.72;;;1.71;81.67
71621;BME280;59471;42.254;23.102;2023-03-17T05:53:31;96217.28;;;1.58;82.18
71621;BME280;59471;42.254;23.102;2023-03-17T05:55:57;96232.09;;;1.68;81.64
71621;BME280;59471;42.254;23.102;2023-03-17T05:58:23;96227.38;;;1.61;81.81
71621;BME280;59471;42.254;23.102;2023-03-17T06:00:48;96222.50;;;1.81;82.58
71621;BME280;59471;42.254;23.102;2023-03-17T06:03:14;96232.78;;;1.70;81.52
71621;BME280;59471;42.254;23.102;2023-03-17T06:05:40;96239.84;;;1.79;81.39
71621;BME280;59471;42.254;23.102;2023-03-17T06:08:06;96245.25;;;1.76;81.36
71621;BME280;59471;42.254;23.102;2023-03-17T06:10:31;96237.53;;;1.87;81.33
71621;BME280;59471;42.254;23.102;2023-03-17T06:12:57;96240.81;;;1.89;81.12
71621;BME280;59471;42.254;23.102;2023-03-17T06:15:24;96231.44;;;1.77;80.84
71621;BME280;59471;42.254;23.102;2023-03-17T06:17:50;96227.44;;;1.84;80.99
71621;BME280;59471;42.254;23.102;2023-03-17T06:20:16;96237.31;;;1.90;80.46
71621;BME280;59471;42.254;23.102;2023-03-17T06:22:42;96242.72;;;1.98;80.34
71621;BME280;59471;42.254;23.102;2023-03-17T06:25:09;96244.16;;;2.02;81.06
71621;BME280;59471;42.254;23.102;2023-03-17T06:27:36;96253.53;;;2.03;80.60
71621;BME280;59471;42.254;23.102;2023-03-17T06:30:04;96255.72;;;1.85;80.12
71621;BME280;59471;42.254;23.102;2023-03-17T06:32:31;96264.13;;;2.12;80.80
71621;BME280;59471;42.254;23.102;2023-03-17T06:34:57;96260.47;;;2.14;80.07
71621;BME280;59471;42.254;23.102;2023-03-17T06:37:23;96270.38;;;2.31;78.90
71621;BME280;59471;42.254;23.102;2023-03-17T06:39:48;96263.69;;;2.40;78.52
71621;BME280;59471;42.254;23.102;2023-03-17T06:42:14;96263.91;;;2.48;78.27
71621;BME280;59471;42.254;23.102;2023-03-17T06:44:40;96258.97;;;2.45;78.56
71621;BME280;59471;42.254;23.102;2023-03-17T06:47:06;96262.97;;;2.38;78.78
71621;BME280;59471;42.254;23.102;2023-03-17T06:49:31;96277.22;;;2.66;77.99
71621;BME280;59471;42.254;23.102;2023-03-17T06:51:57;96274.25;;;2.71;77.17
71621;BME280;59471;42.254;23.102;2023-03-17T06:54:23;96277.44;;;2.63;77.85
71621;BME280;59471;42.254;23.102;2023-03-17T06:56:51;96278.16;;;2.76;77.48
71621;BME280;59471;42.254;23.102;2023-03-17T06:59:18;96289.66;;;2.84;77.83
71621;BME280;59471;42.254;23.102;2023-03-17T07:01:44;96280.69;;;3.10;76.20
71621;BME280;59471;42.254;23.102;2023-03-17T07:04:10;96286.25;;;2.94;76.57
71621;BME280;59471;42.254;23.102;2023-03-17T07:06:36;96276.97;;;2.92;76.58
71621;BME280;59471;42.254;23.102;2023-03-17T07:09:02;96290.25;;;2.87;76.92
71621;BME280;59471;42.254;23.102;2023-03-17T07:11:28;96278.00;;;2.89;76.60
71621;BME280;59471;42.254;23.102;2023-03-17T07:13:55;96279.44;;;2.93;76.63
71621;BME280;59471;42.254;23.102;2023-03-17T07:16:20;96286.25;;;2.83;77.04
71621;BME280;59471;42.254;23.102;2023-03-17T07:18:46;96290.94;;;3.00;76.67
71621;BME280;59471;42.254;23.102;2023-03-17T07:21:12;96275.41;;;3.12;76.54
71621;BME280;59471;42.254;23.102;2023-03-17T07:23:39;96279.41;;;3.16;76.07
71621;BME280;59471;42.254;23.102;2023-03-17T07:26:04;96290.38;;;3.52;76.17
71621;BME280;59471;42.254;23.102;2023-03-17T07:28:30;96282.06;;;3.69;75.59
71621;BME280;59471;42.254;23.102;2023-03-17T07:30:56;96278.88;;;3.44;76.00
71621;BME280;59471;42.254;23.102;2023-03-17T07:33:23;96279.28;;;3.61;75.71
71621;BME280;59471;42.254;23.102;2023-03-17T07:35:50;96282.47;;;3.85;74.41
71621;BME280;59471;42.254;23.102;2023-03-17T07:38:17;96280.31;;;3.90;74.55
71621;BME280;59471;42.254;23.102;2023-03-17T07:40:45;96280.47;;;4.10;74.53
71621;BME280;59471;42.254;23.102;2023-03-17T07:43:15;96287.03;;;4.14;72.43
71621;BME280;59471;42.254;23.102;2023-03-17T07:45:42;96296.72;;;3.91;72.64
71621;BME280;59471;42.254;23.102;2023-03-17T07:48:08;96283.41;;;3.84;73.55
71621;BME280;59471;42.254;23.102;2023-03-17T07:50:35;96285.91;;;3.75;72.44
71621;BME280;59471;42.254;23.102;2023-03-17T07:53:01;96275.53;;;4.07;72.73
71621;BME280;59471;42.254;23.102;2023-03-17T07:55:29;96293.44;;;4.10;71.28
71621;BME280;59471;42.254;23.102;2023-03-17T07:57:56;96298.47;;;4.11;72.21
71621;BME280;59471;42.254;23.102;2023-03-17T08:00:22;96286.59;;;4.30;70.49
71621;BME280;59471;42.254;23.102;2023-03-17T08:02:49;96288.34;;;4.08;71.27
71621;BME280;59471;42.254;23.102;2023-03-17T08:05:16;96287.09;;;4.24;70.62
71621;BME280;59471;42.254;23.102;2023-03-17T08:07:42;96294.34;;;4.09;70.53
71621;BME280;59471;42.254;23.102;2023-03-17T08:10:08;96289.53;;;4.25;71.08
71621;BME280;59471;42.254;23.102;2023-03-17T08:12:37;96292.53;;;4.21;70.10
71621;BME280;59471;42.254;23.102;2023-03-17T08:15:03;96297.25;;;4.36;70.24
71621;BME280;59471;42.254;23.102;2023-03-17T08:17:29;96297.00;;;4.60;69.58
71621;BME280;59471;42.254;23.102;2023-03-17T08:19:55;96292.59;;;4.92;69.20
71621;BME280;59471;42.254;23.102;2023-03-17T08:22:21;96278.47;;;5.15;67.99
71621;BME280;59471;42.254;23.102;2023-03-17T08:24:47;96283.06;;;5.52;68.16
71621;BME280;59471;42.254;23.102;2023-03-17T08:27:13;96277.16;;;5.50;66.06
71621;BME280;59471;42.254;23.102;2023-03-17T08:29:39;96280.47;;;5.52;64.97
71621;BME280;59471;42.254;23.102;2023-03-17T08:32:05;96278.84;;;5.90;64.97
71621;BME280;59471;42.254;23.102;2023-03-17T08:34:31;96281.28;;;5.62;66.54
71621;BME280;59471;42.254;23.102;2023-03-17T08:36:57;96268.44;;;6.09;65.72
71621;BME280;59471;42.254;23.102;2023-03-17T08:39:22;96269.47;;;6.36;64.50
71621;BME280;59471;42.254;23.102;2023-03-17T08:41:48;96265.47;;;6.51;65.65
71621;BME280;59471;42.254;23.102;2023-03-17T08:44:15;96268.72;;;6.06;63.95
71621;BME280;59471;42.254;23.102;2023-03-17T08:46:41;96271.72;;;5.63;66.30
71621;BME280;59471;42.254;23.102;2023-03-17T08:49:07;96261.59;;;5.89;64.86
71621;BME280;59471;42.254;23.102;2023-03-17T08:51:35;96273.13;;;5.96;63.91
71621;BME280;59471;42.254;23.102;2023-03-17T08:54:03;96262.38;;;6.38;63.59
71621;BME280;59471;42.254;23.102;2023-03-17T08:56:30;96256.81;;;6.60;62.63
71621;BME280;59471;42.254;23.102;2023-03-17T08:58:56;96258.66;;;6.78;62.05
71621;BME280;59471;42.254;23.102;2023-03-17T09:01:22;96260.03;;;6.82;61.76
71621;BME280;59471;42.254;23.102;2023-03-17T09:03:50;96250.91;;;6.95;61.75
71621;BME280;59471;42.254;23.102;2023-03-17T09:06:18;96233.44;;;6.88;59.09
71621;BME280;59471;42.254;23.102;2023-03-17T09:08:44;96240.38;;;6.97;58.04
71621;BME280;59471;42.254;23.102;2023-03-17T09:11:16;96244.78;;;7.14;57.44
71621;BME280;59471;42.254;23.102;2023-03-17T09:13:45;96225.47;;;7.35;58.13
71621;BME280;59471;42.254;23.102;2023-03-17T09:16:12;96226.66;;;7.58;56.80
71621;BME280;59471;42.254;23.102;2023-03-17T09:18:39;96234.28;;;7.70;55.77
71621;BME280;59471;42.254;23.102;2023-03-17T09:21:05;96238.41;;;7.62;56.91
71621;BME280;59471;42.254;23.102;2023-03-17T09:23:31;96235.22;;;7.69;56.33
71621;BME280;59471;42.254;23.102;2023-03-17T09:25:58;96229.72;;;7.36;55.97
71621;BME280;59471;42.254;23.102;2023-03-17T09:28:23;96223.97;;;7.50;56.80
71621;BME280;59471;42.254;23.102;2023-03-17T09:30:49;96229.88;;;7.70;55.95
71621;BME280;59471;42.254;23.102;2023-03-17T09:33:15;96228.97;;;7.79;54.42
71621;BME280;59471;42.254;23.102;2023-03-17T09:35:42;96232.69;;;7.95;53.65
71621;BME280;59471;42.254;23.102;2023-03-17T09:38:08;96233.44;;;7.87;53.30
71621;BME280;59471;42.254;23.102;2023-03-17T09:40:43;96229.72;;;7.72;51.69
71621;BME280;59471;42.254;23.102;2023-03-17T09:44:28;96217.94;;;7.85;51.33
71621;BME280;59471;42.254;23.102;2023-03-17T09:47:10;96235.81;;;7.98;52.33
71621;BME280;59471;42.254;23.102;2023-03-17T09:49:50;96226.69;;;8.02;51.52
71621;BME280;59471;42.254;23.102;2023-03-17T09:52:23;96237.41;;;8.17;52.02
71621;BME280;59471;42.254;23.102;2023-03-17T09:54:51;96224.28;;;8.35;51.47
71621;BME280;59471;42.254;23.102;2023-03-17T09:57:24;96225.22;;;8.26;49.53
71621;BME280;59471;42.254;23.102;2023-03-17T10:00:14;96211.84;;;8.21;50.31
71621;BME280;59471;42.254;23.102;2023-03-17T10:02:42;96223.38;;;8.18;49.62
71621;BME280;59471;42.254;23.102;2023-03-17T10:11:05;96226.16;;;8.17;47.21
71621;BME280;59471;42.254;23.102;2023-03-17T10:16:29;96237.00;;;8.30;47.28
71621;BME280;59471;42.254;23.102;2023-03-17T10:19:22;96238.84;;;8.38;46.48
71621;BME280;59471;42.254;23.102;2023-03-17T10:21:59;96241.81;;;8.69;47.76
71621;BME280;59471;42.254;23.102;2023-03-17T10:24:30;96247.16;;;8.59;46.81
71621;BME280;59471;42.254;23.102;2023-03-17T10:26:59;96230.06;;;8.65;46.45
71621;BME280;59471;42.254;23.102;2023-03-17T10:29:29;96229.88;;;8.92;48.08
71621;BME280;59471;42.254;23.102;2023-03-17T10:31:56;96228.94;;;9.10;46.72
71621;BME280;59471;42.254;23.102;2023-03-17T10:34:25;96234.50;;;9.23;45.93
71621;BME280;59471;42.254;23.102;2023-03-17T10:36:55;96241.13;;;8.93;44.73
71621;BME280;59471;42.254;23.102;2023-03-17T10:39:25;96239.59;;;8.82;44.04
71621;BME280;59471;42.254;23.102;2023-03-17T10:44:53;96230.63;;;8.85;45.40
71621;BME280;59471;42.254;23.102;2023-03-17T10:50:37;96231.63;;;9.34;46.29
71621;BME280;59471;42.254;23.102;2023-03-17T10:53:07;96222.91;;;9.17;45.15
71621;BME280;59471;42.254;23.102;2023-03-17T10:55:59;96237.19;;;9.47;44.67
71621;BME280;59471;42.254;23.102;2023-03-17T10:58:52;96224.78;;;9.49;45.18
71621;BME280;59471;42.254;23.102;2023-03-17T11:01:36;96221.50;;;9.47;44.97
71621;BME280;59471;42.254;23.102;2023-03-17T11:04:30;96230.19;;;9.56;44.87
71621;BME280;59471;42.254;23.102;2023-03-17T11:06:59;96217.31;;;9.71;45.33
71621;BME280;59471;42.254;23.102;2023-03-17T11:09:34;96210.25;;;9.63;45.42
71621;BME280;59471;42.254;23.102;2023-03-17T11:12:06;96207.81;;;9.94;45.94
71621;BME280;59471;42.254;23.102;2023-03-17T11:14:42;96212.38;;;10.01;45.05
71621;BME280;59471;42.254;23.102;2023-03-17T11:17:29;96219.56;;;9.66;43.86
71621;BME280;59471;42.254;23.102;2023-03-17T11:20:40;96192.75;;;9.64;45.64
71621;BME280;59471;42.254;23.102;2023-03-17T11:23:25;96212.06;;;9.87;44.23
71621;BME280;59471;42.254;23.102;2023-03-17T11:35:18;96193.63;;;10.69;43.01
71621;BME280;59471;42.254;23.102;2023-03-17T11:38:10;96189.47;;;10.43;43.60
71621;BME280;59471;42.254;23.102;2023-03-17T11:43:42;96189.41;;;10.52;43.63
71621;BME280;59471;42.254;23.102;2023-03-17T11:46:36;96184.78;;;10.70;43.92
71621;BME280;59471;42.254;23.102;2023-03-17T11:49:24;96179.69;;;10.68;42.81
71621;BME280;59471;42.254;23.102;2023-03-17T11:55:10;96195.25;;;10.78;42.49
71621;BME280;59471;42.254;23.102;2023-03-17T11:57:49;96194.50;;;11.01;42.89
71621;BME280;59471;42.254;23.102;2023-03-17T12:00:26;96196.19;;;10.85;42.94
71621;BME280;59471;42.254;23.102;2023-03-17T12:06:00;96198.81;;;10.77;43.11
71621;BME280;59471;42.254;23.102;2023-03-17T12:08:38;96187.19;;;10.40;43.82
71621;BME280;59471;42.254;23.102;2023-03-17T12:11:13;96192.66;;;10.62;43.16
71621;BME280;59471;42.254;23.102;2023-03-17T12:13:54;96199.72;;;11.01;43.20
71621;BME280;59471;42.254;23.102;2023-03-17T12:16:34;96199.34;;;11.12;41.74
71621;BME280;59471;42.254;23.102;2023-03-17T12:22:02;96190.88;;;11.02;44.11
71621;BME280;59471;42.254;23.102;2023-03-17T12:24:35;96192.84;;;11.00;41.99
71621;BME280;59471;42.254;23.102;2023-03-17T12:27:14;96181.94;;;11.19;42.75
71621;BME280;59471;42.254;23.102;2023-03-17T12:29:57;96190.25;;;11.54;41.89
71621;BME280;59471;42.254;23.102;2023-03-17T12:32:34;96187.72;;;11.83;41.85
71621;BME280;59471;42.254;23.102;2023-03-17T12:38:24;96180.72;;;11.30;41.38
71621;BME280;59471;42.254;23.102;2023-03-17T12:43:34;96178.59;;;10.55;41.47
71621;BME280;59471;42.254;23.102;2023-03-17T12:46:23;96184.91;;;10.77;40.57
71621;BME280;59471;42.254;23.102;2023-03-17T12:54:43;96185.16;;;10.98;41.13
71621;BME280;59471;42.254;23.102;2023-03-17T12:57:19;96174.03;;;11.27;42.03
71621;BME280;59471;42.254;23.102;2023-03-17T12:59:58;96183.91;;;11.17;41.44
71621;BME280;59471;42.254;23.102;2023-03-17T13:04:54;96187.31;;;11.49;42.93
71621;BME280;59471;42.254;23.102;2023-03-17T13:07:55;96190.44;;;12.13;39.87
71621;BME280;59471;42.254;23.102;2023-03-17T13:10:44;96182.94;;;12.25;39.65
71621;BME280;59471;42.254;23.102;2023-03-17T13:13:46;96178.34;;;12.27;39.42
71621;BME280;59471;42.254;23.102;2023-03-17T13:16:32;96181.00;;;11.89;38.71
71621;BME280;59471;42.254;23.102;2023-03-17T13:21:42;96183.66;;;10.64;40.47
71621;BME280;59471;42.254;23.102;2023-03-17T13:29:41;96183.78;;;9.91;40.11
71621;BME280;59471;42.254;23.102;2023-03-17T13:35:12;96184.44;;;9.85;40.67
71621;BME280;59471;42.254;23.102;2023-03-17T13:51:10;96177.06;;;9.80;40.69
71621;BME280;59471;42.254;23.102;2023-03-17T13:53:54;96179.19;;;9.77;39.78
71621;BME280;59471;42.254;23.102;2023-03-17T14:02:14;96183.94;;;9.57;41.57
71621;BME280;59471;42.254;23.102;2023-03-17T14:05:02;96183.28;;;9.79;41.55
71621;BME280;59471;42.254;23.102;2023-03-17T14:07:41;96184.09;;;10.04;40.94
71621;BME280;59471;42.254;23.102;2023-03-17T14:10:30;96181.44;;;10.37;40.86
71621;BME280;59471;42.254;23.102;2023-03-17T14:13:40;96167.81;;;10.58;40.03
71621;BME280;59471;42.254;23.102;2023-03-17T14:15:57;96174.41;;;10.21;39.17
71621;BME280;59471;42.254;23.102;2023-03-17T14:18:38;96173.00;;;9.94;40.06
71621;BME280;59471;42.254;23.102;2023-03-17T14:21:19;96174.25;;;10.39;39.28
71621;BME280;59471;42.254;23.102;2023-03-17T14:23:55;96176.84;;;10.47;39.13
71621;BME280;59471;42.254;23.102;2023-03-17T14:26:30;96188.16;;;10.87;38.83
71621;BME280;59471;42.254;23.102;2023-03-17T14:29:01;96176.66;;;10.57;39.08
71621;BME280;59471;42.254;23.102;2023-03-17T14:31:28;96171.28;;;10.50;39.84
71621;BME280;59471;42.254;23.102;2023-03-17T14:33:55;96177.59;;;10.64;38.20
71621;BME280;59471;42.254;23.102;2023-03-17T14:36:23;96183.56;;;10.25;40.10
71621;BME280;59471;42.254;23.102;2023-03-17T14:38:52;96176.38;;;10.27;39.60
71621;BME280;59471;42.254;23.102;2023-03-17T14:41:21;96179.91;;;10.59;38.72
71621;BME280;59471;42.254;23.102;2023-03-17T14:43:49;96176.56;;;10.01;39.87